sensor_id;sensor_type;location;lat;lon;timestamp;P1;durP1;ratioP1;P2;durP2;ratioP2
24373;SDS011;12498;50.880;12.096;2022-11-12T00:00:35;27.15;;;15.30;;
24373;SDS011;12498;50.880;12.096;2022-11-12T00:03:00;15.85;;;10.88;;
24373;SDS011;12498;50.880;12.096;2022-11-12T00:05:27;17.05;;;10.18;;
24373;SDS011;12498;50.880;12.096;2022-11-12T00:07:53;16.77;;;10.00;;
24373;SDS011;12498;50.880;12.096;2022-11-12T00:10:22;16.38;;;9.32;;
24373;SDS011;12498;50.880;12.096;2022-11-12T00:12:48;15.98;;;9.20;;
24373;SDS011;12498;50.880;12.096;2022-11-12T00:15:14;14.43;;;8.80;;
24373;SDS011;12498;50.880;12.096;2022-11-12T00:17:40;15.57;;;9.40;;
24373;SDS011;12498;50.880;12.096;2022-11-12T00:20:06;16.25;;;9.27;;
24373;SDS011;12498;50.880;12.096;2022-11-12T00:22:32;16.38;;;9.32;;
24373;SDS011;12498;50.880;12.096;2022-11-12T00:24:58;15.30;;;9.30;;
24373;SDS011;12498;50.880;12.096;2022-11-12T00:27:23;19.27;;;9.50;;
24373;SDS011;12498;50.880;12.096;2022-11-12T00:29:49;15.45;;;9.40;;
24373;SDS011;12498;50.880;12.096;2022-11-12T00:32:15;17.88;;;10.00;;
24373;SDS011;12498;50.880;12.096;2022-11-12T00:34:40;18.08;;;10.10;;
24373;SDS011;12498;50.880;12.096;2022-11-12T00:37:06;15.15;;;9.32;;
24373;SDS011;12498;50.880;12.096;2022-11-12T00:39:32;17.98;;;10.20;;
24373;SDS011;12498;50.880;12.096;2022-11-12T00:42:01;17.38;;;9.75;;
24373;SDS011;12498;50.880;12.096;2022-11-12T00:44:26;14.77;;;9.40;;
24373;SDS011;12498;50.880;12.096;2022-11-12T00:46:53;17.30;;;9.75;;
24373;SDS011;12498;50.880;12.096;2022-11-12T00:49:19;15.57;;;10.38;;
24373;SDS011;12498;50.880;12.096;2022-11-12T00:51:45;18.70;;;10.57;;
24373;SDS011;12498;50.880;12.096;2022-11-12T00:54:11;16.42;;;10.45;;
24373;SDS011;12498;50.880;12.096;2022-11-12T00:56:36;16.13;;;9.48;;
24373;SDS011;12498;50.880;12.096;2022-11-12T00:59:02;16.92;;;9.90;;
24373;SDS011;12498;50.880;12.096;2022-11-12T01:01:28;16.77;;;9.85;;
24373;SDS011;12498;50.880;12.096;2022-11-12T01:03:53;19.08;;;9.70;;
24373;SDS011;12498;50.880;12.096;2022-11-12T01:06:22;16.55;;;9.98;;
24373;SDS011;12498;50.880;12.096;2022-11-12T01:08:48;18.92;;;10.55;;
24373;SDS011;12498;50.880;12.096;2022-11-12T01:11:15;17.42;;;10.55;;
24373;SDS011;12498;50.880;12.096;2022-11-12T01:13:43;25.77;;;11.43;;
24373;SDS011;12498;50.880;12.096;2022-11-12T01:16:14;19.15;;;11.23;;
24373;SDS011;12498;50.880;12.096;2022-11-12T01:18:43;33.80;;;24.13;;
24373;SDS011;12498;50.880;12.096;2022-11-12T01:21:10;38.97;;;29.20;;
24373;SDS011;12498;50.880;12.096;2022-11-12T01:23:38;42.63;;;34.80;;
24373;SDS011;12498;50.880;12.096;2022-11-12T01:26:09;51.35;;;41.85;;
24373;SDS011;12498;50.880;12.096;2022-11-12T01:28:37;50.72;;;42.92;;
24373;SDS011;12498;50.880;12.096;2022-11-12T01:31:22;53.42;;;44.10;;
24373;SDS011;12498;50.880;12.096;2022-11-12T01:34:08;65.43;;;56.55;;
24373;SDS011;12498;50.880;12.096;2022-11-12T01:36:37;72.32;;;60.67;;
24373;SDS011;12498;50.880;12.096;2022-11-12T01:39:04;55.47;;;46.17;;
24373;SDS011;12498;50.880;12.096;2022-11-12T01:41:31;43.53;;;34.83;;
24373;SDS011;12498;50.880;12.096;2022-11-12T01:46:55;18.27;;;13.35;;
24373;SDS011;12498;50.880;12.096;2022-11-12T01:52:34;17.08;;;10.15;;
24373;SDS011;12498;50.880;12.096;2022-11-12T01:55:13;16.60;;;10.30;;
24373;SDS011;12498;50.880;12.096;2022-11-12T02:00:11;16.45;;;10.15;;
24373;SDS011;12498;50.880;12.096;2022-11-12T02:02:37;16.85;;;10.05;;
24373;SDS011;12498;50.880;12.096;2022-11-12T02:05:07;16.85;;;9.75;;
24373;SDS011;12498;50.880;12.096;2022-11-12T02:07:35;17.40;;;10.07;;
24373;SDS011;12498;50.880;12.096;2022-11-12T02:10:03;21.25;;;10.40;;
24373;SDS011;12498;50.880;12.096;2022-11-12T02:12:31;17.27;;;10.10;;
24373;SDS011;12498;50.880;12.096;2022-11-12T02:15:15;15.60;;;9.70;;
24373;SDS011;12498;50.880;12.096;2022-11-12T02:17:41;16.67;;;9.98;;
24373;SDS011;12498;50.880;12.096;2022-11-12T02:20:08;17.27;;;10.63;;
24373;SDS011;12498;50.880;12.096;2022-11-12T02:22:34;20.48;;;10.60;;
24373;SDS011;12498;50.880;12.096;2022-11-12T02:25:00;15.95;;;10.52;;
24373;SDS011;12498;50.880;12.096;2022-11-12T02:27:26;18.85;;;11.32;;
24373;SDS011;12498;50.880;12.096;2022-11-12T02:29:52;18.63;;;11.40;;
24373;SDS011;12498;50.880;12.096;2022-11-12T02:32:18;18.88;;;11.30;;
24373;SDS011;12498;50.880;12.096;2022-11-12T02:34:44;16.45;;;10.25;;
24373;SDS011;12498;50.880;12.096;2022-11-12T02:37:09;15.82;;;10.35;;
24373;SDS011;12498;50.880;12.096;2022-11-12T02:39:35;16.27;;;10.80;;
24373;SDS011;12498;50.880;12.096;2022-11-12T02:42:01;19.38;;;10.65;;
24373;SDS011;12498;50.880;12.096;2022-11-12T02:44:26;16.38;;;10.63;;
24373;SDS011;12498;50.880;12.096;2022-11-12T02:46:52;14.73;;;10.45;;
24373;SDS011;12498;50.880;12.096;2022-11-12T02:49:18;22.48;;;10.48;;
24373;SDS011;12498;50.880;12.096;2022-11-12T02:51:43;16.73;;;10.27;;
24373;SDS011;12498;50.880;12.096;2022-11-12T02:54:09;19.70;;;11.40;;
24373;SDS011;12498;50.880;12.096;2022-11-12T02:56:35;16.48;;;10.65;;
24373;SDS011;12498;50.880;12.096;2022-11-12T02:59:00;17.52;;;10.48;;
24373;SDS011;12498;50.880;12.096;2022-11-12T03:01:26;15.52;;;10.45;;
24373;SDS011;12498;50.880;12.096;2022-11-12T03:03:52;18.70;;;10.43;;
24373;SDS011;12498;50.880;12.096;2022-11-12T03:06:17;18.73;;;10.20;;
24373;SDS011;12498;50.880;12.096;2022-11-12T03:08:43;19.65;;;10.70;;
24373;SDS011;12498;50.880;12.096;2022-11-12T03:11:10;20.67;;;10.75;;
24373;SDS011;12498;50.880;12.096;2022-11-12T03:13:37;18.67;;;11.27;;
24373;SDS011;12498;50.880;12.096;2022-11-12T03:16:03;18.23;;;10.65;;
24373;SDS011;12498;50.880;12.096;2022-11-12T03:18:29;18.55;;;10.98;;
24373;SDS011;12498;50.880;12.096;2022-11-12T03:20:55;20.35;;;10.18;;
24373;SDS011;12498;50.880;12.096;2022-11-12T03:23:21;23.08;;;11.48;;
24373;SDS011;12498;50.880;12.096;2022-11-12T03:25:46;18.73;;;11.68;;
24373;SDS011;12498;50.880;12.096;2022-11-12T03:28:13;19.00;;;11.43;;
24373;SDS011;12498;50.880;12.096;2022-11-12T03:30:40;19.25;;;11.63;;
24373;SDS011;12498;50.880;12.096;2022-11-12T03:33:08;19.30;;;11.82;;
24373;SDS011;12498;50.880;12.096;2022-11-12T03:35:35;17.33;;;9.07;;
24373;SDS011;12498;50.880;12.096;2022-11-12T03:38:01;18.15;;;11.98;;
24373;SDS011;12498;50.880;12.096;2022-11-12T03:40:28;16.75;;;10.90;;
24373;SDS011;12498;50.880;12.096;2022-11-12T03:42:54;18.15;;;10.90;;
24373;SDS011;12498;50.880;12.096;2022-11-12T03:45:21;21.38;;;11.32;;
24373;SDS011;12498;50.880;12.096;2022-11-12T03:47:49;17.55;;;10.73;;
24373;SDS011;12498;50.880;12.096;2022-11-12T03:50:16;19.45;;;10.93;;
24373;SDS011;12498;50.880;12.096;2022-11-12T03:52:46;15.88;;;10.75;;
24373;SDS011;12498;50.880;12.096;2022-11-12T03:55:13;17.63;;;10.93;;
24373;SDS011;12498;50.880;12.096;2022-11-12T03:57:41;18.67;;;10.95;;
24373;SDS011;12498;50.880;12.096;2022-11-12T04:00:07;19.70;;;10.50;;
24373;SDS011;12498;50.880;12.096;2022-11-12T04:02:34;17.65;;;11.25;;
24373;SDS011;12498;50.880;12.096;2022-11-12T04:05:00;25.33;;;11.68;;
24373;SDS011;12498;50.880;12.096;2022-11-12T04:07:47;21.48;;;12.15;;
24373;SDS011;12498;50.880;12.096;2022-11-12T04:10:32;18.10;;;11.05;;
24373;SDS011;12498;50.880;12.096;2022-11-12T04:12:59;16.73;;;11.25;;
24373;SDS011;12498;50.880;12.096;2022-11-12T04:15:43;19.63;;;11.95;;
24373;SDS011;12498;50.880;12.096;2022-11-12T04:18:09;19.55;;;11.18;;
24373;SDS011;12498;50.880;12.096;2022-11-12T04:20:53;21.48;;;11.75;;
24373;SDS011;12498;50.880;12.096;2022-11-12T04:23:38;14.90;;;10.57;;
24373;SDS011;12498;50.880;12.096;2022-11-12T04:26:07;17.52;;;11.02;;
24373;SDS011;12498;50.880;12.096;2022-11-12T04:28:48;19.60;;;11.73;;
24373;SDS011;12498;50.880;12.096;2022-11-12T04:31:32;16.90;;;10.82;;
24373;SDS011;12498;50.880;12.096;2022-11-12T04:34:01;19.35;;;10.95;;
24373;SDS011;12498;50.880;12.096;2022-11-12T04:36:46;16.35;;;10.82;;
24373;SDS011;12498;50.880;12.096;2022-11-12T04:39:12;21.38;;;11.90;;
24373;SDS011;12498;50.880;12.096;2022-11-12T04:41:37;18.52;;;11.43;;
24373;SDS011;12498;50.880;12.096;2022-11-12T04:44:22;20.55;;;11.15;;
24373;SDS011;12498;50.880;12.096;2022-11-12T04:47:06;19.92;;;11.85;;
24373;SDS011;12498;50.880;12.096;2022-11-12T04:49:31;24.25;;;12.55;;
24373;SDS011;12498;50.880;12.096;2022-11-12T04:51:57;21.10;;;12.10;;
24373;SDS011;12498;50.880;12.096;2022-11-12T04:54:32;20.20;;;12.00;;
24373;SDS011;12498;50.880;12.096;2022-11-12T04:57:00;21.70;;;12.32;;
24373;SDS011;12498;50.880;12.096;2022-11-12T04:59:26;22.57;;;11.93;;
24373;SDS011;12498;50.880;12.096;2022-11-12T05:01:52;20.52;;;12.15;;
24373;SDS011;12498;50.880;12.096;2022-11-12T05:04:17;20.38;;;11.45;;
24373;SDS011;12498;50.880;12.096;2022-11-12T05:06:43;18.52;;;11.50;;
24373;SDS011;12498;50.880;12.096;2022-11-12T05:09:18;16.02;;;11.18;;
24373;SDS011;12498;50.880;12.096;2022-11-12T05:11:45;18.73;;;11.50;;
24373;SDS011;12498;50.880;12.096;2022-11-12T05:14:10;19.90;;;11.02;;
24373;SDS011;12498;50.880;12.096;2022-11-12T05:16:36;20.17;;;11.48;;
24373;SDS011;12498;50.880;12.096;2022-11-12T05:19:02;16.42;;;11.32;;
24373;SDS011;12498;50.880;12.096;2022-11-12T05:21:28;16.20;;;10.75;;
24373;SDS011;12498;50.880;12.096;2022-11-12T05:24:12;16.60;;;10.85;;
24373;SDS011;12498;50.880;12.096;2022-11-12T05:26:38;15.40;;;10.05;;
24373;SDS011;12498;50.880;12.096;2022-11-12T05:29:03;18.30;;;9.88;;
24373;SDS011;12498;50.880;12.096;2022-11-12T05:31:30;18.23;;;10.70;;
24373;SDS011;12498;50.880;12.096;2022-11-12T05:33:56;14.48;;;10.07;;
24373;SDS011;12498;50.880;12.096;2022-11-12T05:36:22;16.20;;;10.52;;
24373;SDS011;12498;50.880;12.096;2022-11-12T05:38:48;19.38;;;11.50;;
24373;SDS011;12498;50.880;12.096;2022-11-12T05:41:17;22.25;;;11.07;;
24373;SDS011;12498;50.880;12.096;2022-11-12T05:43:43;16.98;;;11.52;;
24373;SDS011;12498;50.880;12.096;2022-11-12T05:46:11;16.88;;;11.02;;
24373;SDS011;12498;50.880;12.096;2022-11-12T05:48:37;15.98;;;11.00;;
24373;SDS011;12498;50.880;12.096;2022-11-12T05:51:03;18.73;;;12.10;;
24373;SDS011;12498;50.880;12.096;2022-11-12T05:53:29;16.77;;;11.80;;
24373;SDS011;12498;50.880;12.096;2022-11-12T05:55:59;19.42;;;11.32;;
24373;SDS011;12498;50.880;12.096;2022-11-12T05:58:28;21.27;;;12.15;;
24373;SDS011;12498;50.880;12.096;2022-11-12T06:00:55;18.65;;;12.13;;
24373;SDS011;12498;50.880;12.096;2022-11-12T06:03:20;21.10;;;12.32;;
24373;SDS011;12498;50.880;12.096;2022-11-12T06:05:46;19.45;;;12.63;;
24373;SDS011;12498;50.880;12.096;2022-11-12T06:08:12;21.58;;;13.30;;
24373;SDS011;12498;50.880;12.096;2022-11-12T06:10:38;20.50;;;11.90;;
24373;SDS011;12498;50.880;12.096;2022-11-12T06:13:03;19.42;;;11.23;;
24373;SDS011;12498;50.880;12.096;2022-11-12T06:15:29;14.68;;;10.80;;
24373;SDS011;12498;50.880;12.096;2022-11-12T06:17:55;16.52;;;10.35;;
24373;SDS011;12498;50.880;12.096;2022-11-12T06:20:21;15.70;;;10.10;;
24373;SDS011;12498;50.880;12.096;2022-11-12T06:22:47;16.75;;;9.75;;
24373;SDS011;12498;50.880;12.096;2022-11-12T06:25:13;14.23;;;9.15;;
24373;SDS011;12498;50.880;12.096;2022-11-12T06:27:39;14.55;;;9.32;;
24373;SDS011;12498;50.880;12.096;2022-11-12T06:30:05;15.25;;;9.27;;
24373;SDS011;12498;50.880;12.096;2022-11-12T06:32:31;15.60;;;9.27;;
24373;SDS011;12498;50.880;12.096;2022-11-12T06:34:57;16.02;;;9.30;;
24373;SDS011;12498;50.880;12.096;2022-11-12T06:37:22;14.02;;;9.10;;
24373;SDS011;12498;50.880;12.096;2022-11-12T06:39:48;13.55;;;8.98;;
24373;SDS011;12498;50.880;12.096;2022-11-12T06:42:14;13.98;;;8.52;;
24373;SDS011;12498;50.880;12.096;2022-11-12T06:44:40;14.32;;;8.68;;
24373;SDS011;12498;50.880;12.096;2022-11-12T06:47:05;18.08;;;10.85;;
24373;SDS011;12498;50.880;12.096;2022-11-12T06:49:31;15.20;;;9.20;;
24373;SDS011;12498;50.880;12.096;2022-11-12T06:51:57;20.42;;;11.20;;
24373;SDS011;12498;50.880;12.096;2022-11-12T06:54:22;17.88;;;10.60;;
24373;SDS011;12498;50.880;12.096;2022-11-12T06:56:48;17.25;;;10.55;;
24373;SDS011;12498;50.880;12.096;2022-11-12T06:59:14;16.20;;;9.00;;
24373;SDS011;12498;50.880;12.096;2022-11-12T07:01:40;13.75;;;9.60;;
24373;SDS011;12498;50.880;12.096;2022-11-12T07:04:05;14.48;;;8.43;;
24373;SDS011;12498;50.880;12.096;2022-11-12T07:06:32;14.43;;;9.00;;
24373;SDS011;12498;50.880;12.096;2022-11-12T07:09:01;13.57;;;9.10;;
24373;SDS011;12498;50.880;12.096;2022-11-12T07:11:27;15.52;;;9.07;;
24373;SDS011;12498;50.880;12.096;2022-11-12T07:13:53;13.52;;;7.97;;
24373;SDS011;12498;50.880;12.096;2022-11-12T07:16:19;13.20;;;8.93;;
24373;SDS011;12498;50.880;12.096;2022-11-12T07:18:45;17.63;;;10.57;;
24373;SDS011;12498;50.880;12.096;2022-11-12T07:21:13;14.23;;;9.57;;
24373;SDS011;12498;50.880;12.096;2022-11-12T07:23:40;18.77;;;10.68;;
24373;SDS011;12498;50.880;12.096;2022-11-12T07:28:39;15.07;;;10.15;;
24373;SDS011;12498;50.880;12.096;2022-11-12T07:31:06;19.23;;;11.80;;
24373;SDS011;12498;50.880;12.096;2022-11-12T07:33:33;16.27;;;10.25;;
24373;SDS011;12498;50.880;12.096;2022-11-12T07:36:00;21.77;;;13.13;;
24373;SDS011;12498;50.880;12.096;2022-11-12T07:38:28;27.38;;;15.68;;
24373;SDS011;12498;50.880;12.096;2022-11-12T07:40:58;26.70;;;16.52;;
24373;SDS011;12498;50.880;12.096;2022-11-12T07:43:33;23.23;;;14.55;;
24373;SDS011;12498;50.880;12.096;2022-11-12T07:46:03;23.10;;;13.57;;
24373;SDS011;12498;50.880;12.096;2022-11-12T07:48:31;23.92;;;14.98;;
24373;SDS011;12498;50.880;12.096;2022-11-12T07:51:08;24.63;;;14.00;;
24373;SDS011;12498;50.880;12.096;2022-11-12T07:53:43;20.20;;;13.45;;
24373;SDS011;12498;50.880;12.096;2022-11-12T07:56:10;19.17;;;12.15;;
24373;SDS011;12498;50.880;12.096;2022-11-12T07:58:37;16.27;;;9.68;;
24373;SDS011;12498;50.880;12.096;2022-11-12T08:01:09;13.77;;;9.10;;
24373;SDS011;12498;50.880;12.096;2022-11-12T08:03:56;11.23;;;7.15;;
24373;SDS011;12498;50.880;12.096;2022-11-12T08:06:22;11.75;;;7.03;;
24373;SDS011;12498;50.880;12.096;2022-11-12T08:08:51;11.70;;;7.07;;
24373;SDS011;12498;50.880;12.096;2022-11-12T08:11:18;11.00;;;6.13;;
24373;SDS011;12498;50.880;12.096;2022-11-12T08:13:44;13.15;;;7.60;;
24373;SDS011;12498;50.880;12.096;2022-11-12T08:16:10;13.93;;;6.57;;
24373;SDS011;12498;50.880;12.096;2022-11-12T08:18:36;11.32;;;7.45;;
24373;SDS011;12498;50.880;12.096;2022-11-12T08:21:03;10.95;;;7.13;;
24373;SDS011;12498;50.880;12.096;2022-11-12T08:23:30;10.88;;;6.68;;
24373;SDS011;12498;50.880;12.096;2022-11-12T08:25:59;11.57;;;7.15;;
24373;SDS011;12498;50.880;12.096;2022-11-12T08:28:30;12.93;;;6.75;;
24373;SDS011;12498;50.880;12.096;2022-11-12T08:31:03;9.50;;;5.75;;
24373;SDS011;12498;50.880;12.096;2022-11-12T08:33:34;8.50;;;5.22;;
24373;SDS011;12498;50.880;12.096;2022-11-12T08:36:03;10.15;;;5.47;;
24373;SDS011;12498;50.880;12.096;2022-11-12T08:38:30;10.90;;;5.55;;
24373;SDS011;12498;50.880;12.096;2022-11-12T08:41:00;8.57;;;4.63;;
24373;SDS011;12498;50.880;12.096;2022-11-12T08:43:29;6.82;;;4.18;;
24373;SDS011;12498;50.880;12.096;2022-11-12T08:45:58;7.70;;;5.00;;
24373;SDS011;12498;50.880;12.096;2022-11-12T08:48:25;10.05;;;5.60;;
24373;SDS011;12498;50.880;12.096;2022-11-12T08:50:51;8.05;;;4.50;;
24373;SDS011;12498;50.880;12.096;2022-11-12T08:53:17;9.52;;;5.95;;
24373;SDS011;12498;50.880;12.096;2022-11-12T08:55:44;7.78;;;5.28;;
24373;SDS011;12498;50.880;12.096;2022-11-12T08:58:10;10.80;;;5.28;;
24373;SDS011;12498;50.880;12.096;2022-11-12T09:00:38;7.93;;;5.35;;
24373;SDS011;12498;50.880;12.096;2022-11-12T09:03:06;14.98;;;5.97;;
24373;SDS011;12498;50.880;12.096;2022-11-12T09:05:37;8.15;;;5.22;;
24373;SDS011;12498;50.880;12.096;2022-11-12T09:08:04;11.18;;;5.90;;
24373;SDS011;12498;50.880;12.096;2022-11-12T09:10:31;15.07;;;5.95;;
24373;SDS011;12498;50.880;12.096;2022-11-12T09:12:57;13.45;;;6.20;;
24373;SDS011;12498;50.880;12.096;2022-11-12T09:15:23;11.93;;;6.60;;
24373;SDS011;12498;50.880;12.096;2022-11-12T09:18:22;9.80;;;6.22;;
24373;SDS011;12498;50.880;12.096;2022-11-12T09:20:42;11.82;;;5.78;;
24373;SDS011;12498;50.880;12.096;2022-11-12T09:23:12;10.13;;;5.43;;
24373;SDS011;12498;50.880;12.096;2022-11-12T09:25:39;10.65;;;4.80;;
24373;SDS011;12498;50.880;12.096;2022-11-12T09:28:10;8.68;;;5.03;;
24373;SDS011;12498;50.880;12.096;2022-11-12T09:30:40;9.27;;;4.90;;
24373;SDS011;12498;50.880;12.096;2022-11-12T09:33:09;6.82;;;3.97;;
24373;SDS011;12498;50.880;12.096;2022-11-12T09:35:35;14.60;;;6.38;;
24373;SDS011;12498;50.880;12.096;2022-11-12T09:38:00;16.13;;;9.23;;
24373;SDS011;12498;50.880;12.096;2022-11-12T09:41:09;14.95;;;7.05;;
24373;SDS011;12498;50.880;12.096;2022-11-12T09:45:56;23.85;;;6.50;;
24373;SDS011;12498;50.880;12.096;2022-11-12T09:48:43;16.63;;;7.25;;
24373;SDS011;12498;50.880;12.096;2022-11-12T09:51:35;11.40;;;5.75;;
24373;SDS011;12498;50.880;12.096;2022-11-12T09:54:03;11.27;;;5.63;;
24373;SDS011;12498;50.880;12.096;2022-11-12T09:58:56;9.98;;;4.40;;
24373;SDS011;12498;50.880;12.096;2022-11-12T10:01:39;7.32;;;4.00;;
24373;SDS011;12498;50.880;12.096;2022-11-12T10:07:03;17.63;;;7.78;;
24373;SDS011;12498;50.880;12.096;2022-11-12T10:24:02;12.93;;;4.00;;
24373;SDS011;12498;50.880;12.096;2022-11-12T10:31:27;15.50;;;6.13;;
24373;SDS011;12498;50.880;12.096;2022-11-12T10:33:56;10.68;;;6.10;;
24373;SDS011;12498;50.880;12.096;2022-11-12T10:37:09;10.95;;;6.03;;
24373;SDS011;12498;50.880;12.096;2022-11-12T10:39:37;9.90;;;5.13;;
24373;SDS011;12498;50.880;12.096;2022-11-12T10:44:34;9.60;;;4.90;;
24373;SDS011;12498;50.880;12.096;2022-11-12T10:52:29;5.15;;;3.33;;
24373;SDS011;12498;50.880;12.096;2022-11-12T10:55:04;7.40;;;4.05;;
24373;SDS011;12498;50.880;12.096;2022-11-12T10:57:40;7.68;;;3.58;;
24373;SDS011;12498;50.880;12.096;2022-11-12T11:02:47;13.05;;;8.23;;
24373;SDS011;12498;50.880;12.096;2022-11-12T11:08:00;7.00;;;3.85;;
24373;SDS011;12498;50.880;12.096;2022-11-12T11:10:33;13.65;;;4.07;;
24373;SDS011;12498;50.880;12.096;2022-11-12T11:13:33;10.15;;;4.80;;
24373;SDS011;12498;50.880;12.096;2022-11-12T11:15:59;6.28;;;3.55;;
24373;SDS011;12498;50.880;12.096;2022-11-12T11:18:28;5.93;;;3.72;;
24373;SDS011;12498;50.880;12.096;2022-11-12T11:31:59;8.35;;;3.92;;
24373;SDS011;12498;50.880;12.096;2022-11-12T11:37:24;11.10;;;4.20;;
24373;SDS011;12498;50.880;12.096;2022-11-12T11:40:10;13.90;;;4.32;;
24373;SDS011;12498;50.880;12.096;2022-11-12T11:45:26;6.75;;;3.47;;
24373;SDS011;12498;50.880;12.096;2022-11-12T11:48:03;14.40;;;8.15;;
24373;SDS011;12498;50.880;12.096;2022-11-12T11:53:45;6.28;;;3.97;;
24373;SDS011;12498;50.880;12.096;2022-11-12T11:56:13;9.20;;;3.80;;
24373;SDS011;12498;50.880;12.096;2022-11-12T12:09:47;5.90;;;3.67;;
24373;SDS011;12498;50.880;12.096;2022-11-12T12:21:14;9.02;;;4.70;;
24373;SDS011;12498;50.880;12.096;2022-11-12T12:25:55;13.70;;;6.65;;
24373;SDS011;12498;50.880;12.096;2022-11-12T12:28:42;26.88;;;12.23;;
24373;SDS011;12498;50.880;12.096;2022-11-12T12:31:22;22.27;;;15.65;;
24373;SDS011;12498;50.880;12.096;2022-11-12T12:34:00;22.50;;;14.68;;
24373;SDS011;12498;50.880;12.096;2022-11-12T12:39:13;23.63;;;14.63;;
24373;SDS011;12498;50.880;12.096;2022-11-12T12:41:50;15.18;;;11.57;;
24373;SDS011;12498;50.880;12.096;2022-11-12T12:44:23;13.10;;;7.70;;
24373;SDS011;12498;50.880;12.096;2022-11-12T12:47:11;11.85;;;5.32;;
24373;SDS011;12498;50.880;12.096;2022-11-12T12:49:38;6.65;;;3.50;;
24373;SDS011;12498;50.880;12.096;2022-11-12T12:52:05;6.65;;;3.25;;
24373;SDS011;12498;50.880;12.096;2022-11-12T12:56:59;5.97;;;3.10;;
24373;SDS011;12498;50.880;12.096;2022-11-12T12:59:28;5.25;;;2.90;;
24373;SDS011;12498;50.880;12.096;2022-11-12T13:02:00;4.57;;;2.75;;
24373;SDS011;12498;50.880;12.096;2022-11-12T13:07:21;4.93;;;2.17;;
24373;SDS011;12498;50.880;12.096;2022-11-12T13:15:56;8.30;;;4.18;;
24373;SDS011;12498;50.880;12.096;2022-11-12T13:23:44;4.37;;;2.30;;
24373;SDS011;12498;50.880;12.096;2022-11-12T13:26:45;5.78;;;2.60;;
24373;SDS011;12498;50.880;12.096;2022-11-12T13:29:16;5.60;;;3.10;;
24373;SDS011;12498;50.880;12.096;2022-11-12T13:37:56;8.65;;;4.80;;
24373;SDS011;12498;50.880;12.096;2022-11-12T13:43:40;16.45;;;8.75;;
24373;SDS011;12498;50.880;12.096;2022-11-12T13:48:39;8.55;;;5.43;;
24373;SDS011;12498;50.880;12.096;2022-11-12T13:53:41;8.20;;;4.25;;
24373;SDS011;12498;50.880;12.096;2022-11-12T13:56:09;7.70;;;3.25;;
24373;SDS011;12498;50.880;12.096;2022-11-12T13:58:36;4.45;;;2.78;;
24373;SDS011;12498;50.880;12.096;2022-11-12T14:01:06;9.38;;;4.10;;
24373;SDS011;12498;50.880;12.096;2022-11-12T14:03:41;4.53;;;3.40;;
24373;SDS011;12498;50.880;12.096;2022-11-12T14:06:30;6.55;;;4.45;;
24373;SDS011;12498;50.880;12.096;2022-11-12T14:09:22;7.53;;;4.53;;
24373;SDS011;12498;50.880;12.096;2022-11-12T14:11:54;6.88;;;3.40;;
24373;SDS011;12498;50.880;12.096;2022-11-12T14:20:06;4.32;;;2.50;;
24373;SDS011;12498;50.880;12.096;2022-11-12T14:22:52;6.22;;;2.90;;
24373;SDS011;12498;50.880;12.096;2022-11-12T14:25:22;4.60;;;2.70;;
24373;SDS011;12498;50.880;12.096;2022-11-12T14:27:55;5.18;;;2.92;;
24373;SDS011;12498;50.880;12.096;2022-11-12T14:32:49;7.35;;;4.13;;
24373;SDS011;12498;50.880;12.096;2022-11-12T14:35:18;7.38;;;3.90;;
24373;SDS011;12498;50.880;12.096;2022-11-12T14:40:35;8.57;;;4.43;;
24373;SDS011;12498;50.880;12.096;2022-11-12T14:46:04;7.85;;;4.43;;
24373;SDS011;12498;50.880;12.096;2022-11-12T14:48:35;8.45;;;5.53;;
24373;SDS011;12498;50.880;12.096;2022-11-12T14:51:09;9.13;;;4.88;;
24373;SDS011;12498;50.880;12.096;2022-11-12T14:53:39;7.13;;;3.83;;
24373;SDS011;12498;50.880;12.096;2022-11-12T14:56:10;14.80;;;8.88;;
24373;SDS011;12498;50.880;12.096;2022-11-12T14:58:53;25.83;;;14.75;;
24373;SDS011;12498;50.880;12.096;2022-11-12T15:01:22;58.80;;;32.30;;
24373;SDS011;12498;50.880;12.096;2022-11-12T15:03:51;65.05;;;35.75;;
24373;SDS011;12498;50.880;12.096;2022-11-12T15:06:41;53.03;;;30.40;;
24373;SDS011;12498;50.880;12.096;2022-11-12T15:09:18;40.03;;;20.58;;
24373;SDS011;12498;50.880;12.096;2022-11-12T15:11:58;25.33;;;13.32;;
24373;SDS011;12498;50.880;12.096;2022-11-12T15:14:24;23.13;;;12.57;;
24373;SDS011;12498;50.880;12.096;2022-11-12T15:16:50;23.23;;;11.00;;
24373;SDS011;12498;50.880;12.096;2022-11-12T15:19:24;18.15;;;9.20;;
24373;SDS011;12498;50.880;12.096;2022-11-12T15:21:52;17.13;;;9.40;;
24373;SDS011;12498;50.880;12.096;2022-11-12T15:24:22;19.65;;;9.63;;
24373;SDS011;12498;50.880;12.096;2022-11-12T15:26:57;17.30;;;9.43;;
24373;SDS011;12498;50.880;12.096;2022-11-12T15:29:26;19.33;;;9.67;;
24373;SDS011;12498;50.880;12.096;2022-11-12T15:37:07;24.00;;;11.98;;
24373;SDS011;12498;50.880;12.096;2022-11-12T15:39:46;39.85;;;18.88;;
24373;SDS011;12498;50.880;12.096;2022-11-12T15:44:41;104.32;;;31.65;;
24373;SDS011;12498;50.880;12.096;2022-11-12T15:47:14;115.78;;;41.45;;
24373;SDS011;12498;50.880;12.096;2022-11-12T15:49:54;103.25;;;40.00;;
24373;SDS011;12498;50.880;12.096;2022-11-12T15:52:22;97.57;;;38.72;;
24373;SDS011;12498;50.880;12.096;2022-11-12T15:54:48;71.15;;;29.23;;
24373;SDS011;12498;50.880;12.096;2022-11-12T15:57:21;61.15;;;24.65;;
24373;SDS011;12498;50.880;12.096;2022-11-12T15:59:56;37.83;;;17.90;;
24373;SDS011;12498;50.880;12.096;2022-11-12T16:02:29;27.92;;;14.18;;
24373;SDS011;12498;50.880;12.096;2022-11-12T16:04:55;22.52;;;10.55;;
24373;SDS011;12498;50.880;12.096;2022-11-12T16:07:21;25.65;;;12.00;;
24373;SDS011;12498;50.880;12.096;2022-11-12T16:09:47;20.30;;;12.52;;
24373;SDS011;12498;50.880;12.096;2022-11-12T16:12:13;25.55;;;14.63;;
24373;SDS011;12498;50.880;12.096;2022-11-12T16:14:39;21.98;;;12.20;;
24373;SDS011;12498;50.880;12.096;2022-11-12T16:17:09;22.83;;;13.95;;
24373;SDS011;12498;50.880;12.096;2022-11-12T16:19:40;37.92;;;17.33;;
24373;SDS011;12498;50.880;12.096;2022-11-12T16:22:06;33.05;;;17.45;;
24373;SDS011;12498;50.880;12.096;2022-11-12T16:24:39;36.00;;;20.90;;
24373;SDS011;12498;50.880;12.096;2022-11-12T16:27:08;37.47;;;19.77;;
24373;SDS011;12498;50.880;12.096;2022-11-12T16:29:39;29.75;;;18.30;;
24373;SDS011;12498;50.880;12.096;2022-11-12T16:32:05;24.42;;;14.95;;
24373;SDS011;12498;50.880;12.096;2022-11-12T16:34:30;23.90;;;15.25;;
24373;SDS011;12498;50.880;12.096;2022-11-12T16:36:56;26.45;;;15.80;;
24373;SDS011;12498;50.880;12.096;2022-11-12T16:39:22;27.95;;;16.35;;
24373;SDS011;12498;50.880;12.096;2022-11-12T16:41:48;32.05;;;19.27;;
24373;SDS011;12498;50.880;12.096;2022-11-12T16:44:14;46.83;;;24.52;;
24373;SDS011;12498;50.880;12.096;2022-11-12T16:46:40;42.90;;;24.63;;
24373;SDS011;12498;50.880;12.096;2022-11-12T16:49:12;47.00;;;25.83;;
24373;SDS011;12498;50.880;12.096;2022-11-12T16:51:38;58.65;;;29.70;;
24373;SDS011;12498;50.880;12.096;2022-11-12T16:54:04;60.40;;;32.00;;
24373;SDS011;12498;50.880;12.096;2022-11-12T16:56:30;58.72;;;30.80;;
24373;SDS011;12498;50.880;12.096;2022-11-12T16:58:57;53.38;;;27.98;;